createdAt,value
2018-05-02T00:02:03.384Z,8.77
2018-05-02T00:04:33.149Z,8.76
2018-05-02T00:07:02.126Z,8.79
2018-05-02T00:09:31.465Z,8.79
2018-05-02T00:12:02.363Z,8.64
2018-05-02T00:14:31.813Z,8.66
2018-05-02T00:17:01.085Z,8.65
2018-05-02T00:19:31.930Z,8.67
2018-05-02T00:22:01.520Z,8.61
2018-05-02T00:24:31.233Z,8.62
2018-05-02T00:27:02.161Z,8.63
2018-05-02T00:29:31.190Z,8.47
2018-05-02T00:32:03.249Z,8.37
2018-05-02T00:34:33.194Z,8.10
2018-05-02T00:37:03.942Z,7.74
2018-05-02T00:39:32.569Z,7.78
2018-05-02T00:42:01.901Z,7.83
2018-05-02T00:44:33.291Z,7.75
2018-05-02T00:47:03.950Z,7.75
2018-05-02T00:49:33.301Z,7.66
2018-05-02T00:52:04.179Z,7.66
2018-05-02T00:54:33.823Z,7.63
2018-05-02T00:57:04.497Z,7.71
2018-05-02T00:59:35.380Z,7.77
2018-05-02T01:02:06.331Z,7.80
2018-05-02T01:04:37.265Z,7.84
2018-05-02T01:07:09.398Z,7.51
2018-05-02T01:09:41.387Z,7.42
2018-05-02T01:12:12.339Z,7.29
2018-05-02T01:14:41.967Z,7.24
2018-05-02T01:17:12.848Z,7.12
2018-05-02T01:19:43.259Z,7.06
2018-05-02T01:22:12.169Z,7.00
2018-05-02T01:24:43.154Z,6.99
2018-05-02T01:27:14.435Z,7.11
2018-05-02T01:29:43.849Z,7.09
2018-05-02T01:32:14.516Z,7.20
2018-05-02T01:34:43.655Z,7.11
2018-05-02T01:37:13.188Z,7.18
2018-05-02T01:39:43.967Z,7.09
2018-05-02T01:42:13.622Z,7.17
2018-05-02T01:44:44.529Z,7.14
2018-05-02T01:47:14.941Z,7.02
2018-05-02T01:49:44.948Z,7.08
2018-05-02T01:52:15.948Z,7.02
2018-05-02T01:54:45.984Z,7.11
2018-05-02T01:57:16.815Z,7.12
2018-05-02T01:59:47.422Z,7.27
2018-05-02T02:02:16.658Z,7.15
2018-05-02T02:04:46.656Z,7.16
2018-05-02T02:07:17.493Z,7.20
2018-05-02T02:09:48.199Z,7.13
2018-05-02T02:12:18.082Z,7.17
2018-05-02T02:14:47.931Z,7.07
2018-05-02T02:17:19.352Z,7.10
2018-05-02T02:19:49.129Z,7.06
2018-05-02T02:22:19.859Z,7.06
2018-05-02T02:24:50.618Z,7.04
2018-05-02T02:27:20.358Z,6.96
2018-05-02T02:29:50.456Z,6.93
2018-05-02T02:32:19.482Z,6.92
2018-05-02T02:34:50.058Z,6.83
2018-05-02T02:37:19.112Z,6.69
2018-05-02T02:39:49.390Z,6.58
2018-05-02T02:42:22.758Z,6.64
2018-05-02T02:44:54.647Z,6.64
2018-05-02T02:47:24.142Z,6.72
2018-05-02T02:49:54.799Z,6.74
2018-05-02T02:52:26.745Z,6.76
2018-05-02T02:54:55.730Z,6.77
2018-05-02T02:57:25.188Z,6.67
2018-05-02T02:59:54.621Z,6.54
2018-05-02T03:02:24.634Z,6.57
2018-05-02T03:04:54.427Z,6.52
2018-05-02T03:07:25.307Z,6.51
2018-05-02T03:09:56.210Z,6.36
2018-05-02T03:12:26.304Z,6.24
2018-05-02T03:14:56.777Z,6.16
2018-05-02T03:17:27.701Z,6.14
2018-05-02T03:19:56.908Z,6.05
2018-05-02T03:22:26.464Z,6.18
2018-05-02T03:24:57.223Z,6.03
2018-05-02T03:27:26.794Z,6.16
2018-05-02T03:29:56.214Z,6.19
2018-05-02T03:32:25.639Z,6.25
2018-05-02T03:34:57.067Z,6.10
2018-05-02T03:37:27.837Z,6.17
2018-05-02T03:39:58.448Z,6.04
2018-05-02T03:42:27.736Z,6.06
2018-05-02T03:44:57.049Z,5.89
2018-05-02T03:47:27.010Z,6.00
2018-05-02T03:49:57.694Z,5.97
2018-05-02T03:52:28.874Z,6.03
2018-05-02T03:54:58.055Z,6.12
2018-05-02T03:57:27.952Z,6.30
2018-05-02T04:00:40.599Z,6.26
2018-05-02T04:03:47.223Z,6.47
2018-05-02T04:06:45.526Z,6.71
2018-05-02T04:09:14.846Z,6.64
2018-05-02T04:11:44.228Z,6.70
2018-05-02T04:14:15.064Z,6.48
2018-05-02T04:16:45.870Z,6.37
2018-05-02T04:19:16.825Z,6.38
2018-05-02T04:21:48.248Z,6.40
2018-05-02T04:24:17.370Z,6.56
2018-05-02T04:26:46.462Z,6.68
2018-05-02T04:29:17.267Z,6.87
2018-05-02T04:31:47.926Z,7.04
2018-05-02T04:34:18.633Z,7.01
2018-05-02T04:36:47.848Z,7.18
2018-05-02T04:39:18.561Z,7.47
2018-05-02T04:41:49.398Z,7.27
2018-05-02T04:44:18.463Z,7.58
2018-05-02T04:46:47.826Z,8.22
2018-05-02T04:49:18.358Z,8.23
2018-05-02T04:51:49.103Z,8.34
2018-05-02T04:54:19.708Z,9.04
2018-05-02T04:56:51.058Z,8.62
2018-05-02T04:59:20.237Z,8.66
2018-05-02T05:01:50.978Z,8.89
2018-05-02T05:04:21.911Z,9.02
2018-05-02T05:06:53.784Z,9.00
2018-05-02T05:09:24.511Z,9.15
2018-05-02T05:11:55.731Z,9.66
2018-05-02T05:14:25.600Z,9.87
2018-05-02T05:16:57.087Z,10.18
2018-05-02T05:19:25.937Z,10.28
2018-05-02T05:21:55.629Z,9.41
2018-05-02T05:24:25.022Z,10.02
2018-05-02T05:26:54.390Z,10.27
2018-05-02T05:29:23.503Z,10.05
2018-05-02T05:31:54.855Z,10.45
2018-05-02T05:34:24.833Z,10.55
2018-05-02T05:36:56.266Z,11.05
2018-05-02T05:39:26.962Z,11.12
2018-05-02T05:41:56.284Z,10.82
2018-05-02T05:44:27.220Z,11.62
2018-05-02T05:46:57.704Z,12.22
2018-05-02T05:49:28.341Z,11.97
2018-05-02T05:51:57.277Z,12.10
2018-05-02T05:54:28.066Z,12.11
2018-05-02T05:56:57.264Z,12.07
2018-05-02T05:59:28.215Z,12.72
2018-05-02T06:01:57.576Z,12.10
2018-05-02T06:04:27.934Z,12.31
2018-05-02T06:06:59.600Z,12.35
2018-05-02T06:09:30.434Z,11.80
2018-05-02T06:12:01.185Z,11.74
2018-05-02T06:14:32.434Z,11.66
2018-05-02T06:17:02.095Z,12.71
2018-05-02T06:19:32.586Z,12.07
2018-05-02T06:22:02.591Z,12.21
2018-05-02T06:24:32.978Z,12.10
2018-05-02T06:27:04.262Z,11.73
2018-05-02T06:29:33.858Z,12.41
2018-05-02T06:32:04.548Z,12.83
2018-05-02T06:34:33.894Z,12.69
2018-05-02T06:37:03.735Z,12.98
2018-05-02T06:39:32.782Z,13.22
2018-05-02T06:42:03.431Z,12.77
2018-05-02T06:44:34.291Z,13.61
2018-05-02T06:47:04.727Z,13.45
2018-05-02T06:49:33.853Z,13.56
2018-05-02T06:52:04.373Z,13.58
2018-05-02T06:54:33.642Z,13.08
2018-05-02T06:57:04.034Z,13.77
2018-05-02T06:59:34.004Z,13.69
2018-05-02T07:02:05.455Z,14.60
2018-05-02T07:04:34.633Z,13.80
2018-05-02T07:07:04.049Z,13.98
2018-05-02T07:09:33.695Z,14.13
2018-05-02T07:12:05.176Z,13.72
2018-05-02T07:14:36.644Z,13.73
2018-05-02T07:17:07.535Z,14.81
2018-05-02T07:19:39.106Z,14.13
2018-05-02T07:22:08.287Z,14.85
2018-05-02T07:24:38.227Z,15.11
2018-05-02T07:27:07.292Z,15.19
2018-05-02T07:29:37.985Z,15.06
2018-05-02T07:32:08.699Z,14.45
2018-05-02T07:34:39.572Z,14.50
2018-05-02T07:37:09.202Z,15.50
2018-05-02T07:39:38.402Z,15.46
2018-05-02T07:42:09.869Z,15.28
2018-05-02T07:44:40.629Z,15.68
2018-05-02T07:47:10.551Z,16.42
2018-05-02T07:49:42.735Z,16.48
2018-05-02T07:52:12.060Z,15.94
2018-05-02T07:54:41.458Z,17.57
2018-05-02T07:57:10.573Z,16.65
2018-05-02T07:59:40.481Z,15.67
2018-05-02T08:02:09.657Z,16.40
2018-05-02T08:04:40.318Z,16.28
2018-05-02T08:07:11.870Z,16.39
2018-05-02T08:09:41.204Z,16.17
2018-05-02T08:12:12.495Z,17.61
2018-05-02T08:14:42.420Z,16.79
2018-05-02T08:17:12.027Z,17.25
2018-05-02T08:19:41.195Z,17.49
2018-05-02T08:22:10.488Z,17.35
2018-05-02T08:24:39.193Z,16.86
2018-05-02T08:27:09.634Z,18.08
2018-05-02T08:29:39.573Z,18.32
2018-05-02T08:32:08.883Z,17.24
2018-05-02T08:34:38.009Z,17.43
2018-05-02T08:37:08.904Z,18.38
2018-05-02T08:39:39.241Z,18.09
2018-05-02T08:42:09.853Z,17.55
2018-05-02T08:44:39.268Z,17.46
2018-05-02T08:47:08.948Z,18.77
2018-05-02T08:49:39.800Z,19.29
2018-05-02T08:52:09.168Z,19.11
2018-05-02T08:54:38.820Z,19.36
2018-05-02T08:57:08.176Z,17.49
2018-05-02T08:59:38.985Z,18.31
2018-05-02T09:02:09.662Z,19.45
2018-05-02T09:04:39.325Z,19.53
2018-05-02T09:07:10.626Z,18.75
2018-05-02T09:09:41.591Z,18.37
2018-05-02T09:12:11.180Z,17.68
2018-05-02T09:14:43.955Z,16.55
2018-05-02T09:17:13.572Z,16.39
2018-05-02T09:19:44.971Z,17.09
2018-05-02T09:22:15.763Z,17.90
2018-05-02T09:24:46.774Z,18.29
2018-05-02T09:27:17.417Z,18.51
2018-05-02T09:29:47.118Z,19.24
2018-05-02T09:32:17.862Z,17.78
2018-05-02T09:34:48.551Z,17.63
2018-05-02T09:37:19.693Z,18.08
2018-05-02T09:39:50.979Z,17.66
2018-05-02T09:42:20.153Z,17.05
2018-05-02T09:44:51.336Z,18.37
2018-05-02T09:47:20.715Z,18.97
2018-05-02T09:49:51.402Z,18.12
2018-05-02T09:52:23.855Z,19.27
2018-05-02T09:54:53.261Z,18.52
2018-05-02T09:57:22.967Z,18.06
2018-05-02T09:59:55.118Z,18.34
2018-05-02T10:02:24.058Z,18.87
2018-05-02T10:04:53.232Z,19.39
2018-05-02T10:07:23.737Z,18.56
2018-05-02T10:09:53.385Z,17.67
2018-05-02T10:12:22.445Z,19.13
2018-05-02T10:14:51.280Z,19.26
2018-05-02T10:17:22.465Z,18.80
2018-05-02T10:19:53.181Z,18.87
2018-05-02T10:22:23.846Z,18.84
2018-05-02T10:24:53.232Z,18.23
2018-05-02T10:27:23.151Z,18.45
2018-05-02T10:29:53.692Z,17.88
2018-05-02T10:32:23.019Z,18.48
2018-05-02T10:34:52.167Z,19.26
2018-05-02T10:37:21.528Z,18.91
2018-05-02T10:39:52.967Z,18.21
2018-05-02T10:42:24.204Z,18.62
2018-05-02T10:44:53.602Z,18.65
2018-05-02T10:47:22.450Z,18.94
2018-05-02T10:49:53.386Z,18.34
2018-05-02T10:52:22.826Z,17.41
2018-05-02T10:54:51.957Z,18.52
2018-05-02T10:57:21.400Z,18.90
2018-05-02T10:59:50.509Z,18.65
2018-05-02T11:02:20.822Z,17.99
2018-05-02T11:04:50.703Z,18.47
2018-05-02T11:07:21.427Z,18.42
2018-05-02T11:09:51.078Z,19.30
2018-05-02T11:12:21.421Z,18.68
2018-05-02T11:14:51.135Z,18.53
2018-05-02T11:17:22.172Z,18.52
2018-05-02T11:19:53.581Z,18.12
2018-05-02T11:22:23.467Z,18.23
2018-05-02T11:24:54.960Z,18.07
2018-05-02T11:27:26.710Z,18.81
2018-05-02T11:29:57.568Z,18.91
2018-05-02T11:32:29.589Z,18.42
2018-05-02T11:34:58.896Z,18.85
2018-05-02T11:37:29.584Z,18.32
2018-05-02T11:39:58.848Z,17.26
2018-05-02T11:42:30.306Z,17.12
2018-05-02T11:45:00.787Z,18.22
2018-05-02T11:47:32.654Z,17.92
2018-05-02T11:50:02.076Z,17.95
2018-05-02T11:52:32.002Z,18.72
2018-05-02T11:55:01.657Z,18.11
2018-05-02T11:57:32.523Z,18.24
2018-05-02T12:00:02.115Z,18.73
2018-05-02T12:02:33.724Z,18.44
2018-05-02T12:05:02.497Z,17.43
2018-05-02T12:07:31.668Z,17.94
2018-05-02T12:10:03.152Z,19.16
2018-05-02T12:12:33.881Z,18.30
2018-05-02T12:15:04.833Z,17.64
2018-05-02T12:17:35.612Z,17.12
2018-05-02T12:20:06.711Z,17.44
2018-05-02T12:22:36.171Z,16.64
2018-05-02T12:25:07.155Z,17.60
2018-05-02T12:27:38.090Z,18.32
2018-05-02T12:30:09.636Z,17.19
2018-05-02T12:32:38.743Z,18.48
2018-05-02T12:35:08.104Z,17.52
2018-05-02T12:37:37.530Z,16.33
2018-05-02T12:40:08.060Z,16.40
2018-05-02T12:42:38.931Z,18.25
2018-05-02T12:45:08.348Z,17.52
2018-05-02T12:47:39.333Z,17.14
2018-05-02T12:50:10.668Z,17.12
2018-05-02T12:52:41.919Z,16.90
2018-05-02T12:55:12.639Z,18.16
2018-05-02T12:57:43.582Z,18.37
2018-05-02T13:00:12.915Z,17.74
2018-05-02T13:02:43.838Z,18.72
2018-05-02T13:05:14.485Z,17.12
2018-05-02T13:07:45.450Z,17.64
2018-05-02T13:10:15.563Z,17.34
2018-05-02T13:12:47.494Z,17.77
2018-05-02T13:15:18.416Z,17.57
2018-05-02T13:17:51.013Z,17.20
2018-05-02T13:20:21.064Z,16.66
2018-05-02T13:22:51.751Z,17.31
2018-05-02T13:25:21.883Z,17.76
2018-05-02T13:27:53.344Z,17.92
2018-05-02T13:30:23.224Z,18.23
2018-05-02T13:32:52.891Z,18.25
2018-05-02T13:35:22.240Z,17.49
2018-05-02T13:37:51.113Z,18.14
2018-05-02T13:40:21.798Z,17.65
2018-05-02T13:42:51.773Z,17.46
2018-05-02T13:45:23.172Z,17.01
2018-05-02T13:47:53.886Z,16.85
2018-05-02T13:50:23.544Z,16.77
2018-05-02T13:52:54.524Z,17.20
2018-05-02T13:55:23.848Z,17.29
2018-05-02T13:57:54.753Z,18.04
2018-05-02T14:00:24.052Z,17.89
2018-05-02T14:02:57.555Z,17.98
2018-05-02T14:05:28.584Z,17.89
2018-05-02T14:08:00.372Z,17.67
2018-05-02T14:10:30.216Z,17.57
2018-05-02T14:13:02.237Z,17.71
2018-05-02T14:15:33.307Z,17.59
2018-05-02T14:18:05.658Z,17.73
2018-05-02T14:20:38.582Z,17.63
2018-05-02T14:23:07.957Z,17.98
2018-05-02T14:25:37.477Z,18.13
2018-05-02T14:28:06.874Z,18.08
2018-05-02T14:30:39.851Z,17.84
2018-05-02T14:33:09.723Z,17.71
2018-05-02T14:35:38.831Z,17.77
2018-05-02T14:38:09.828Z,18.18
2018-05-02T14:40:39.685Z,17.74
2018-05-02T14:43:10.619Z,17.89
2018-05-02T14:45:40.412Z,18.24
2018-05-02T14:48:10.367Z,17.81
2018-05-02T14:50:40.168Z,18.05
2018-05-02T14:53:11.448Z,18.43
2018-05-02T14:55:40.830Z,18.74
2018-05-02T14:58:10.219Z,18.83
2018-05-02T15:00:42.571Z,18.25
2018-05-02T15:03:13.916Z,17.79
2018-05-02T15:05:44.876Z,17.75
2018-05-02T15:08:14.324Z,17.98
2018-05-02T15:10:43.167Z,17.70
2018-05-02T15:13:14.055Z,18.44
2018-05-02T15:15:45.395Z,18.49
2018-05-02T15:18:15.723Z,18.42
2018-05-02T15:20:45.110Z,18.05
2018-05-02T15:23:16.090Z,18.48
2018-05-02T15:25:47.667Z,18.67
2018-05-02T15:28:16.959Z,18.15
2018-05-02T15:30:47.944Z,18.07
2018-05-02T15:33:17.355Z,17.93
2018-05-02T15:35:47.223Z,17.89
2018-05-02T15:38:16.557Z,17.55
2018-05-02T15:40:45.343Z,18.08
2018-05-02T15:43:14.507Z,18.24
2018-05-02T15:45:45.811Z,17.94
2018-05-02T15:48:15.145Z,17.90
2018-05-02T15:50:44.489Z,18.08
2018-05-02T15:53:13.892Z,17.91
2018-05-02T15:55:45.421Z,17.76
2018-05-02T15:58:15.933Z,17.73
2018-05-02T16:00:45.159Z,17.71
2018-05-02T16:03:15.008Z,18.04
2018-05-02T16:05:44.130Z,17.81
2018-05-02T16:08:13.289Z,17.30
2018-05-02T16:10:43.588Z,17.65
2018-05-02T16:13:14.600Z,17.71
2018-05-02T16:15:43.972Z,18.07
2018-05-02T16:18:13.739Z,18.08
2018-05-02T16:20:44.643Z,17.90
2018-05-02T16:23:13.581Z,17.57
2018-05-02T16:25:42.929Z,17.47
2018-05-02T16:28:14.078Z,17.71
2018-05-02T16:30:43.480Z,17.84
2018-05-02T16:33:13.393Z,17.77
2018-05-02T16:35:42.530Z,17.65
2018-05-02T16:38:12.454Z,17.87
2018-05-02T16:40:42.828Z,17.78
2018-05-02T16:43:12.013Z,17.52
2018-05-02T16:45:41.964Z,17.65
2018-05-02T16:48:13.174Z,17.92
2018-05-02T16:50:42.542Z,17.68
2018-05-02T16:53:13.290Z,17.36
2018-05-02T16:55:43.975Z,17.15
2018-05-02T16:58:13.166Z,17.18
2018-05-02T17:00:42.206Z,17.17
2018-05-02T17:03:11.025Z,17.18
2018-05-02T17:05:41.687Z,17.16
2018-05-02T17:08:10.829Z,17.06
2018-05-02T17:10:41.212Z,17.15
2018-05-02T17:13:12.027Z,17.47
2018-05-02T17:15:42.005Z,17.55
2018-05-02T17:18:12.568Z,17.83
2018-05-02T17:20:43.594Z,17.85
2018-05-02T17:23:13.382Z,17.67
2018-05-02T17:25:44.359Z,17.48
2018-05-02T17:28:14.988Z,17.49
2018-05-02T17:30:44.197Z,17.42
2018-05-02T17:33:12.798Z,17.63
2018-05-02T17:35:43.691Z,17.58
2018-05-02T17:38:14.566Z,17.50
2018-05-02T17:40:43.946Z,17.51
2018-05-02T17:43:14.691Z,17.55
2018-05-02T17:45:44.059Z,17.40
2018-05-02T17:48:13.233Z,17.32
2018-05-02T17:50:43.091Z,17.04
2018-05-02T17:53:14.079Z,17.06
2018-05-02T17:55:43.858Z,17.17
2018-05-02T17:58:12.444Z,16.91
2018-05-02T18:00:43.371Z,16.84
2018-05-02T18:03:12.717Z,16.94
2018-05-02T18:05:43.309Z,16.90
2018-05-02T18:08:12.433Z,16.79
2018-05-02T18:10:43.319Z,16.61
2018-05-02T18:13:14.290Z,16.48
2018-05-02T18:15:43.934Z,16.70
2018-05-02T18:18:14.637Z,16.58
2018-05-02T18:20:45.544Z,16.40
2018-05-02T18:23:16.262Z,16.11
2018-05-02T18:25:45.091Z,16.07
2018-05-02T18:28:13.983Z,16.01
2018-05-02T18:30:45.512Z,15.88
2018-05-02T18:33:14.596Z,15.89
2018-05-02T18:35:43.713Z,15.77
2018-05-02T18:38:14.478Z,15.77
2018-05-02T18:40:45.168Z,15.71
2018-05-02T18:43:16.639Z,15.56
2018-05-02T18:45:46.022Z,15.72
2018-05-02T18:48:15.321Z,15.51
2018-05-02T18:50:46.526Z,15.66
2018-05-02T18:53:16.121Z,15.56
2018-05-02T18:55:47.511Z,15.45
2018-05-02T18:58:16.862Z,15.39
2018-05-02T19:00:47.906Z,15.33
2018-05-02T19:03:17.254Z,15.07
2018-05-02T19:05:46.357Z,15.07
2018-05-02T19:08:16.767Z,15.13
2018-05-02T19:10:47.716Z,15.19
2018-05-02T19:13:18.970Z,15.10
2018-05-02T19:15:48.356Z,15.04
2018-05-02T19:18:36.041Z,15.04
2018-05-02T19:21:07.448Z,14.89
2018-05-02T19:23:36.534Z,14.91
2018-05-02T19:26:30.835Z,14.88
2018-05-02T19:29:01.873Z,14.86
2018-05-02T19:31:49.895Z,14.72
2018-05-02T19:34:20.541Z,14.76
2018-05-02T19:36:51.168Z,14.62
2018-05-02T19:39:22.306Z,14.63
2018-05-02T19:42:08.933Z,14.60
2018-05-02T19:44:39.244Z,14.58
2018-05-02T19:47:10.295Z,14.46
2018-05-02T19:49:41.172Z,14.52
2018-05-02T19:52:47.550Z,14.36
2018-05-02T19:55:16.498Z,14.42
2018-05-02T19:57:45.800Z,14.50
2018-05-02T20:00:34.291Z,14.40
2018-05-02T20:03:04.275Z,14.42
2018-05-02T20:05:33.676Z,14.42
2018-05-02T20:08:21.766Z,14.35
2018-05-02T20:11:08.772Z,14.33
2018-05-02T20:13:56.076Z,14.32
2018-05-02T20:16:27.065Z,14.29
2018-05-02T20:18:56.374Z,14.22
2018-05-02T20:21:25.935Z,14.22
2018-05-02T20:23:56.823Z,14.16
2018-05-02T20:26:27.677Z,14.23
2018-05-02T20:28:57.413Z,14.22
2018-05-02T20:31:28.429Z,14.09
2018-05-02T20:33:59.796Z,14.23
2018-05-02T20:36:30.776Z,14.01
2018-05-02T20:39:00.097Z,13.92
2018-05-02T20:41:29.294Z,13.95
2018-05-02T20:44:00.685Z,13.69
2018-05-02T20:46:31.400Z,13.62
2018-05-02T20:49:02.641Z,13.55
2018-05-02T20:51:32.658Z,13.37
2018-05-02T20:54:03.637Z,13.34
2018-05-02T20:56:33.406Z,13.23
2018-05-02T20:59:02.723Z,13.08
2018-05-02T21:01:33.777Z,12.94
2018-05-02T21:04:03.336Z,12.92
2018-05-02T21:06:33.218Z,12.94
2018-05-02T21:09:04.145Z,12.90
2018-05-02T21:11:34.173Z,12.92
2018-05-02T21:14:04.028Z,12.93
2018-05-02T21:16:33.398Z,12.84
2018-05-02T21:19:02.707Z,13.01
2018-05-02T21:21:32.100Z,12.88
2018-05-02T21:24:02.764Z,12.91
2018-05-02T21:26:33.646Z,13.01
2018-05-02T21:29:03.234Z,12.86
2018-05-02T21:31:34.769Z,12.94
2018-05-02T21:34:05.334Z,12.87
2018-05-02T21:36:35.279Z,12.81
2018-05-02T21:39:06.462Z,12.80
2018-05-02T21:41:37.151Z,12.80
2018-05-02T21:44:07.873Z,12.79
2018-05-02T21:46:38.697Z,12.78
2018-05-02T21:49:07.944Z,12.79
2018-05-02T21:51:38.635Z,12.87
2018-05-02T21:54:08.913Z,12.92
2018-05-02T21:56:38.813Z,12.84
2018-05-02T21:59:08.374Z,12.80
2018-05-02T22:01:38.779Z,12.80
2018-05-02T22:04:09.827Z,12.84
2018-05-02T22:06:39.131Z,12.99
2018-05-02T22:09:08.120Z,12.87
2018-05-02T22:11:37.407Z,12.95
2018-05-02T22:14:07.193Z,12.96
2018-05-02T22:16:38.482Z,12.92
2018-05-02T22:19:07.951Z,12.75
2018-05-02T22:21:38.190Z,12.81
2018-05-02T22:24:09.380Z,12.69
2018-05-02T22:26:40.478Z,12.72
2018-05-02T22:29:10.185Z,12.73
2018-05-02T22:31:40.140Z,12.77
2018-05-02T22:34:09.660Z,12.66
2018-05-02T22:36:40.424Z,12.67
2018-05-02T22:39:09.940Z,12.62
2018-05-02T22:41:41.347Z,12.65
2018-05-02T22:44:10.637Z,12.62
2018-05-02T22:46:40.078Z,12.65
2018-05-02T22:49:09.462Z,12.62
2018-05-02T22:51:40.610Z,12.60
2018-05-02T22:54:11.609Z,12.63
2018-05-02T22:56:41.073Z,12.48
2018-05-02T22:59:10.357Z,12.57
2018-05-02T23:01:41.718Z,12.56
2018-05-02T23:04:11.730Z,12.50
2018-05-02T23:06:41.127Z,12.35
2018-05-02T23:09:10.344Z,12.35
2018-05-02T23:11:39.897Z,12.15
2018-05-02T23:14:09.378Z,12.00
2018-05-02T23:16:38.781Z,11.88
2018-05-02T23:19:08.226Z,11.84
2018-05-02T23:21:37.159Z,11.70
2018-05-02T23:24:06.679Z,11.67
2018-05-02T23:26:37.353Z,11.58
2018-05-02T23:29:08.210Z,11.64
2018-05-02T23:31:39.312Z,11.38
2018-05-02T23:34:09.975Z,11.38
2018-05-02T23:36:40.891Z,11.30
2018-05-02T23:39:10.040Z,11.31
2018-05-02T23:41:39.303Z,11.21
2018-05-02T23:44:10.788Z,11.13
2018-05-02T23:46:39.983Z,11.03
2018-05-02T23:49:10.885Z,10.91
2018-05-02T23:51:41.892Z,10.81
2018-05-02T23:54:10.412Z,10.85
2018-05-02T23:56:39.639Z,10.79
2018-05-02T23:59:09.464Z,10.71
